地図

経路データ

SID SEASON NUMBER BASIN SUBBASIN NAME ISO_TIME NATURE LAT LON WMO_WIND WMO_PRES WMO_AGENCY TRACK_TYPE DIST2LAND LANDFALL IFLAG USA_AGENCY USA_ATCF_ID USA_LAT USA_LON USA_RECORD USA_STATUS USA_WIND USA_PRES USA_SSHS USA_R34_NE USA_R34_SE USA_R34_SW USA_R34_NW USA_R50_NE USA_R50_SE USA_R50_SW USA_R50_NW USA_R64_NE USA_R64_SE USA_R64_SW USA_R64_NW USA_POCI USA_ROCI USA_RMW USA_EYE TOKYO_LAT TOKYO_LON TOKYO_GRADE TOKYO_WIND TOKYO_PRES TOKYO_R50_DIR TOKYO_R50_LONG TOKYO_R50_SHORT TOKYO_R30_DIR TOKYO_R30_LONG TOKYO_R30_SHORT TOKYO_LAND CMA_LAT CMA_LON CMA_CAT CMA_WIND CMA_PRES HKO_LAT HKO_LON HKO_CAT HKO_WIND HKO_PRES NEWDELHI_LAT NEWDELHI_LON NEWDELHI_GRADE NEWDELHI_WIND NEWDELHI_PRES NEWDELHI_CI NEWDELHI_DP NEWDELHI_POCI REUNION_LAT REUNION_LON REUNION_TYPE REUNION_WIND REUNION_PRES REUNION_TNUM REUNION_CI REUNION_RMW REUNION_R34_NE REUNION_R34_SE REUNION_R34_SW REUNION_R34_NW REUNION_R50_NE REUNION_R50_SE REUNION_R50_SW REUNION_R50_NW REUNION_R64_NE REUNION_R64_SE REUNION_R64_SW REUNION_R64_NW BOM_LAT BOM_LON BOM_TYPE BOM_WIND BOM_PRES BOM_TNUM BOM_CI BOM_RMW BOM_R34_NE BOM_R34_SE BOM_R34_SW BOM_R34_NW BOM_R50_NE BOM_R50_SE BOM_R50_SW BOM_R50_NW BOM_R64_NE BOM_R64_SE BOM_R64_SW BOM_R64_NW BOM_ROCI BOM_POCI BOM_EYE BOM_POS_METHOD BOM_PRES_METHOD NADI_LAT NADI_LON NADI_CAT NADI_WIND NADI_PRES WELLINGTON_LAT WELLINGTON_LON WELLINGTON_WIND WELLINGTON_PRES DS824_LAT DS824_LON DS824_STAGE DS824_WIND DS824_PRES TD9636_LAT TD9636_LON TD9636_STAGE TD9636_WIND TD9636_PRES TD9635_LAT TD9635_LON TD9635_WIND TD9635_PRES TD9635_ROCI NEUMANN_LAT NEUMANN_LON NEUMANN_CLASS NEUMANN_WIND NEUMANN_PRES MLC_LAT MLC_LON MLC_CLASS MLC_WIND MLC_PRES USA_GUST BOM_GUST BOM_GUST_PER REUNION_GUST REUNION_GUST_PER USA_SEAHGT USA_SEARAD_NE USA_SEARAD_SE USA_SEARAD_SW USA_SEARAD_NW STORM_SPEED STORM_DIR
1970162N17116 1970 49 WP MM NOT_NAMED 1970-06-11 06:00:00 TS 16.5000 116.100 main 388 369 __O___________ -1 16.5000 116.100 0 19 1002 5 47
1970162N17116 1970 49 WP MM NOT_NAMED 1970-06-11 09:00:00 TS 16.6775 116.297 main 371 352 __P___________ -1 16.6775 116.297 0 19 1002 6 44
1970162N17116 1970 49 WP MM NOT_NAMED 1970-06-11 12:00:00 TS 16.9000 116.500 main 355 342 __O___________ -1 16.9000 116.500 0 19 1002 7 37
1970162N17116 1970 49 WP MM NOT_NAMED 1970-06-11 15:00:00 TS 17.1925 116.707 main 345 332 __P___________ -1 17.1925 116.707 0 19 1002 7 32
1970162N17116 1970 49 WP MM NOT_NAMED 1970-06-11 18:00:00 TS 17.5000 116.900 main 336 331 __O___________ -1 17.5000 116.900 0 19 1002 7 31
1970162N17116 1970 49 WP MM NOT_NAMED 1970-06-11 21:00:00 TS 17.7575 117.058 main 332 329 __P___________ -1 17.7575 117.058 0 19 1001 6 30
1970162N17116 1970 49 WP MM NOT_NAMED 1970-06-12 00:00:00 TS 18.0000 117.200 main 331 322 __O___________ -1 18.0000 117.200 0 19 1001 6 29
1970162N17116 1970 49 WP MM NOT_NAMED 1970-06-12 03:00:00 TS 18.2500 117.350 main 314 309 __P___________ -1 18.2500 117.350 0 19 1000 6 30
1970162N17116 1970 49 WP MM NOT_NAMED 1970-06-12 06:00:00 TS 18.5000 117.500 main 312 306 __O___________ -1 18.5000 117.500 0 19 1000 5 29
1970162N17116 1970 49 WP MM NOT_NAMED 1970-06-12 09:00:00 TS 18.7123 117.613 main 310 298 __P___________ -1 18.7123 117.613 0 21 999 6 30
1970162N17116 1970 49 WP MM NOT_NAMED 1970-06-12 12:00:00 TS 19.0000 117.800 main 301 281 __O___________ -1 19.0000 117.800 1 23 999 9 35
1970162N17116 1970 49 WP MM NOT_NAMED 1970-06-12 15:00:00 TS 19.4627 118.170 main 280 268 __P___________ -1 19.4627 118.170 1 26 999 13 37
1970162N17116 1970 49 WP MM NOT_NAMED 1970-06-12 18:00:00 TS 20.0000 118.600 main 275 243 __O___________ -1 20.0000 118.600 1 29 999 13 34
1970162N17116 1970 49 WP MM NOT_NAMED 1970-06-12 21:00:00 TS 20.5145 118.913 main 243 184 __P___________ -1 20.5145 118.913 1 33 998 12 31
1970162N17116 1970 49 WP MM NOT_NAMED 1970-06-13 00:00:00 TS 21.0000 119.240 main 184 129 __OO__________ -1 21.0000 119.300 2 38 997 21.0000 119.000 TD 25 998 10 45
1970162N17116 1970 49 WP MM NOT_NAMED 1970-06-13 03:00:00 TS 21.2272 119.683 main 129 68 __PP__________ -1 21.3474 119.884 2 38 996 20.9867 119.281 TD 25 998 11 60
1970162N17116 1970 49 WP MM NOT_NAMED 1970-06-13 06:00:00 TS 21.5429 120.257 main 60 0 __OO__________ -1 21.8000 120.600 2 38 996 21.2000 119.800 TD 25 998 16 54
1970162N17116 1970 49 WP MM NOT_NAMED 1970-06-13 09:00:00 TS 22.1558 121.052 main 20 20 __PP__________ -1 22.5230 121.408 2 33 995 21.7886 120.696 TD 25 997 22 46
1970162N17116 1970 49 WP MM NOT_NAMED 1970-06-13 12:00:00 TS 23.0500 121.950 main 61 61 __OO__________ -1 23.5000 122.200 1 29 995 22.6000 121.700 TD 25 997 24 37
1970162N17116 1970 49 WP MM NOT_NAMED 1970-06-13 15:00:00 TS 24.0881 122.659 main 92 87 __PP__________ -1 24.7495 122.837 1 29 995 23.4267 122.481 TD 25 997 24 30
1970162N17116 1970 49 WP MM NOT_NAMED 1970-06-13 18:00:00 TS 25.1500 123.300 main 132 131 __OO__________ -1 26.0000 123.400 1 29 995 24.3000 123.200 TD 25 997 22 33
1970162N17116 1970 49 WP MM NOT_NAMED 1970-06-13 21:00:00 TS 25.9588 123.982 main 229 229 __PP__________ -1 26.8796 123.960 1 29 995 25.0379 124.004 TD 25 996 22 32
1970162N17116 1970 49 WP MM NOT_NAMED 1970-06-14 00:00:00 TS 26.9714 124.586 main 328 317 __OO__________ -1 27.7000 124.500 1 29 995 26.0000 124.700 TD 25 996 25 23
1970162N17116 1970 49 WP MM NOT_NAMED 1970-06-14 03:00:00 TS 28.2816 125.100 main 318 314 __PP__________ -1 28.6975 125.066 1 33 995 27.4497 125.168 TD 25 997 29 18
1970162N17116 1970 49 WP MM NOT_NAMED 1970-06-14 06:00:00 TS 29.6800 125.580 main 352 246 __OO__________ -1 29.8000 125.600 2 38 996 29.2000 125.500 TD 25 998 29 18
1970162N17116 1970 49 WP MM NOT_NAMED 1970-06-14 09:00:00 TS 31.0301 126.145 main 246 122 __P___________ -1 31.0301 126.145 2 38 994 TD 27 17
1970162N17116 1970 49 WP MM NOT_NAMED 1970-06-14 12:00:00 ET 32.2000 126.500 main 111 11 __O___________ -1 32.2000 126.500 9 38 992 21 9
1970162N17116 1970 49 WP MM NOT_NAMED 1970-06-14 15:00:00 ET 33.1394 126.537 main 11 0 __P___________ -1 33.1394 126.537 9 38 993 17 354
1970162N17116 1970 49 WP MM NOT_NAMED 1970-06-14 18:00:00 ET 33.9000 126.300 main 44 28 __O___________ -1 33.9000 126.300 9 38 994 15 341
1970162N17116 1970 49 WP MM NOT_NAMED 1970-06-14 21:00:00 ET 34.5593 125.962 main 27 27 __P___________ -1 34.5593 125.962 9 38 995 14 328
1970162N17116 1970 49 WP MM NOT_NAMED 1970-06-15 00:00:00 ET 35.1000 125.400 main 72 72 __O___________ -1 35.1000 125.400 9 38 996 15 313
1970162N17116 1970 49 WP MM NOT_NAMED 1970-06-15 03:00:00 ET 35.6032 124.596 main 155 146 __P___________ -1 35.6032 124.596 9 38 997 16 303
1970162N17116 1970 49 WP MM NOT_NAMED 1970-06-15 06:00:00 ET 36.0000 123.700 main 146 75 __O___________ -1 36.0000 123.700 9 38 999 16 298
1970162N17116 1970 49 WP MM NOT_NAMED 1970-06-15 09:00:00 ET 36.3248 122.897 main 75 33 __P___________ -1 36.3248 122.897 9 33 999 13 292
1970162N17116 1970 49 WP MM NOT_NAMED 1970-06-15 12:00:00 ET 36.5000 122.200 main 33 22 __O___________ -1 36.5000 122.200 9 29 1000 10 280
1970162N17116 1970 49 WP MM NOT_NAMED 1970-06-15 15:00:00 ET 36.5097 121.617 main 22 21 __P___________ -1 36.5097 121.617 9 26 1001 8 263
1970162N17116 1970 49 WP MM NOT_NAMED 1970-06-15 18:00:00 ET 36.4000 121.200 main 21 8 __O___________ -1 36.4000 121.200 9 23 1003 7 249
1970162N17116 1970 49 WP MM NOT_NAMED 1970-06-15 21:00:00 ET 36.2795 120.857 main 11 8 __P___________ -1 36.2795 120.857 9 21 1004 4 227
1970162N17116 1970 49 WP MM NOT_NAMED 1970-06-16 00:00:00 ET 36.1000 120.800 main 8 8 __O___________ -1 36.1000 120.800 9 19 1006 5 153
1970162N17116 1970 49 WP MM NOT_NAMED 1970-06-16 03:00:00 ET 35.8352 121.139 main 49 49 __P___________ -1 35.8352 121.139 9 19 1007 9 124
1970162N17116 1970 49 WP MM NOT_NAMED 1970-06-16 06:00:00 ET 35.6000 121.700 main 105 105 __O___________ -1 35.6000 121.700 9 19 1008 9 110
1970162N17116 1970 49 WP MM NOT_NAMED 1970-06-16 09:00:00 ET 35.5123 122.227 main 144 144 __P___________ -1 35.5123 122.227 9 19 1008 9 96
1970162N17116 1970 49 WP MM NOT_NAMED 1970-06-16 12:00:00 ET 35.5000 122.800 main 151 151 __O___________ -1 35.5000 122.800 9 19 1008 9 91
1970162N17116 1970 49 WP MM NOT_NAMED 1970-06-16 15:00:00 ET 35.5006 123.395 main 175 175 __P___________ -1 35.5006 123.395 9 19 1008 10 90
1970162N17116 1970 49 WP MM NOT_NAMED 1970-06-16 18:00:00 ET 35.5000 124.000 main 204 __O___________ -1 35.5000 124.000 9 19 1009 10 90

デジタル台風データ・検索

IBTrACS Databaseについて

本データベースは、米国NOAAが公開する1842年以降の世界の熱帯低気圧のベストトラックデータアーカイブInternational Best Track Archive for Climate Stewardship (IBTrACS)を、ウェブで閲覧しやすい形式に変換したものです。

最終更新日:2021-10-19